Time;durP1;ratioP1;P1;durP2;ratioP2;P2;SDS_P1;SDS_P2;PMS_P1;PMS_P2;Temp;Humidity;BMP_temperature;BMP_pressure;BME280_temperature;BME280_humidity;BME280_pressure;Samples;Min_cycle;Max_cycle;Signal;HPM_P1;HPM_P2
2023/09/20 00:00:10;;;;;;;5.70;3.40;;;;;;;11.76;87.05;100356.73;105133;1260;73938;-63
2023/09/20 00:02:58;;;;;;;5.10;3.30;;;;;;;11.76;87.43;100350.92;105145;1261;69198;-63
2023/09/20 00:05:27;;;;;;;6.00;2.80;;;;;;;11.82;88.34;100352.10;105241;1256;70625;-63
2023/09/20 00:07:55;;;;;;;5.20;3.50;;;;;;;11.89;88.16;100350.63;105200;1262;72452;-63
2023/09/20 00:10:24;;;;;;;5.40;3.30;;;;;;;11.93;88.36;100354.30;105159;1261;83402;-63
2023/09/20 00:12:52;;;;;;;5.80;3.20;;;;;;;11.97;88.30;100354.13;105198;1261;71961;-63
2023/09/20 00:15:21;;;;;;;5.50;3.30;;;;;;;12.00;88.56;100353.61;105128;1262;69119;-63
2023/09/20 00:17:50;;;;;;;8.80;4.10;;;;;;;12.09;88.77;100355.54;105167;1256;69082;-63
2023/09/20 00:20:19;;;;;;;6.80;3.50;;;;;;;12.15;88.74;100357.36;105139;1256;74009;-63
2023/09/20 00:22:48;;;;;;;5.00;3.30;;;;;;;12.20;88.53;100362.02;105199;1256;82401;-63
2023/09/20 00:25:16;;;;;;;6.30;3.40;;;;;;;12.25;88.53;100363.55;105140;1261;72431;-63
2023/09/20 00:27:45;;;;;;;8.70;3.00;;;;;;;12.29;88.38;100366.73;105181;1260;69148;-62
2023/09/20 00:30:14;;;;;;;5.50;3.90;;;;;;;12.32;88.23;100365.55;105192;1260;69098;-63
2023/09/20 00:32:42;;;;;;;6.60;3.50;;;;;;;12.33;88.02;100363.38;105217;1261;74239;-63
2023/09/20 00:35:17;;;;;;;6.00;3.50;;;;;;;12.35;87.96;100360.11;105200;1256;82995;-63
2023/09/20 00:37:48;;;;;;;7.70;3.50;;;;;;;12.37;87.91;100360.56;105140;1261;72268;-63
2023/09/20 00:40:18;;;;;;;4.90;3.00;;;;;;;12.40;88.13;100359.20;105121;1262;69132;-62
2023/09/20 00:42:50;;;;;;;5.70;3.00;;;;;;;12.46;87.95;100358.42;105094;1256;69022;-63
2023/09/20 00:45:19;;;;;;;6.40;2.60;;;;;;;12.49;87.97;100359.16;105162;1260;73002;-63
2023/09/20 00:47:55;;;;;;;5.60;2.80;;;;;;;12.53;87.84;100358.79;105173;1262;83581;-62
2023/09/20 00:50:31;;;;;;;6.00;3.50;;;;;;;12.57;87.84;100356.86;105084;1260;73684;-63
2023/09/20 00:53:00;;;;;;;4.50;2.90;;;;;;;12.61;87.68;100352.65;105174;1260;69160;-62
2023/09/20 00:55:30;;;;;;;4.10;2.70;;;;;;;12.64;87.52;100354.45;105215;1256;69067;-62
2023/09/20 00:58:04;;;;;;;7.30;2.90;;;;;;;12.66;87.43;100355.05;105108;1262;74031;-63
2023/09/20 01:00:37;;;;;;;7.20;3.10;;;;;;;12.66;87.27;100354.83;105079;1262;83472;-63
2023/09/20 01:03:06;;;;;;;5.10;3.10;;;;;;;12.69;87.10;100357.36;105189;1256;72551;-63
2023/09/20 01:05:36;;;;;;;6.10;2.80;;;;;;;12.71;86.93;100356.23;105170;1262;69189;-63
2023/09/20 01:08:06;;;;;;;5.80;2.80;;;;;;;12.70;86.65;100356.23;105171;1256;69122;-63
2023/09/20 01:10:38;;;;;;;5.90;2.50;;;;;;;12.69;86.57;100352.79;105148;1256;74014;-64
2023/09/20 01:13:09;;;;;;;4.10;2.30;;;;;;;12.69;86.50;100355.41;105146;1256;82431;-62
2023/09/20 01:15:38;;;;;;;7.40;2.20;;;;;;;12.69;86.39;100360.33;105140;1257;72694;-62
2023/09/20 01:18:07;;;;;;;;;;;;;;;12.70;86.62;100362.75;105184;1258;69055;-62
2023/09/20 01:20:39;;;;;;;3.50;2.20;;;;;;;12.72;86.60;100358.63;105158;1256;69119;-62
2023/09/20 01:23:09;;;;;;;6.10;2.50;;;;;;;12.75;86.42;100359.02;105147;1256;72723;-62
2023/09/20 01:25:43;;;;;;;5.90;2.50;;;;;;;12.76;86.34;100358.29;105146;1260;83738;-62
2023/09/20 01:28:13;;;;;;;8.40;2.80;;;;;;;12.78;86.26;100353.98;105164;1256;72585;-62
2023/09/20 01:30:41;;;;;;;4.00;2.80;;;;;;;12.79;86.06;100356.23;105202;1257;69190;-62
2023/09/20 01:33:12;;;;;;;4.30;2.40;;;;;;;12.79;86.14;100353.75;105184;1256;69169;-62
2023/09/20 01:35:43;;;;;;;4.70;2.10;;;;;;;12.79;85.91;100351.99;105171;1256;73001;-62
2023/09/20 01:38:11;;;;;;;;;;;;;;;12.78;85.71;100346.95;105201;1256;83301;-62
2023/09/20 01:40:40;;;;;;;6.30;2.40;;;;;;;12.78;85.90;100348.17;105189;1262;72472;-62
2023/09/20 01:43:08;;;;;;;5.50;2.30;;;;;;;12.77;85.63;100343.52;105126;1262;69139;-62
2023/09/20 01:45:37;;;;;;;6.50;2.20;;;;;;;12.75;85.33;100338.15;105134;1256;69135;-62
2023/09/20 01:48:08;;;;;;;5.00;2.10;;;;;;;12.74;85.58;100340.30;105232;1261;73379;-62
2023/09/20 01:50:38;;;;;;;3.20;1.80;;;;;;;12.75;85.40;100342.72;105139;1260;83324;-62
2023/09/20 01:53:06;;;;;;;3.60;2.30;;;;;;;12.74;85.51;100343.43;105206;1256;72664;-62
2023/09/20 01:55:37;;;;;;;4.20;2.50;;;;;;;12.73;85.13;100344.18;105112;1256;69114;-62
2023/09/20 01:58:08;;;;;;;;;;;;;;;12.72;85.26;100342.50;105130;1256;69097;-62
2023/09/20 02:00:42;;;;;;;4.00;2.00;;;;;;;12.69;85.22;100344.02;105248;1257;74209;-63
2023/09/20 02:03:16;;;;;;;5.80;2.20;;;;;;;12.69;85.38;100346.47;105195;1257;82288;-63
2023/09/20 02:05:48;;;;;;;4.90;2.20;;;;;;;12.70;85.30;100343.11;105169;1262;73540;-62
2023/09/20 02:08:17;;;;;;;5.10;2.40;;;;;;;12.69;85.11;100345.77;105084;1257;69133;-62
2023/09/20 02:10:47;;;;;;;6.40;2.30;;;;;;;12.68;85.23;100344.42;105093;1256;69146;-62
2023/09/20 02:13:17;;;;;;;4.00;2.10;;;;;;;12.68;85.16;100346.33;105223;1262;73132;-62
2023/09/20 02:15:47;;;;;;;4.70;2.30;;;;;;;12.69;85.23;100351.59;105084;1261;83622;-62
2023/09/20 02:18:16;;;;;;;3.30;2.10;;;;;;;12.70;85.17;100353.48;105163;1262;72461;-63
2023/09/20 02:20:44;;;;;;;5.00;1.90;;;;;;;12.70;85.10;100355.90;105023;1262;69170;-63
2023/09/20 02:23:13;;;;;;;2.70;1.90;;;;;;;12.70;85.10;100351.86;105194;1260;69191;-63
2023/09/20 02:25:43;;;;;;;3.90;2.30;;;;;;;12.69;84.95;100353.17;105194;1256;73074;-63
2023/09/20 02:28:12;;;;;;;3.30;2.00;;;;;;;12.67;84.78;100352.02;105236;1260;83070;-62
2023/09/20 02:30:42;;;;;;;3.50;2.00;;;;;;;12.66;84.68;100351.20;105172;1262;73952;-63
2023/09/20 02:33:17;;;;;;;4.20;2.10;;;;;;;12.65;84.64;100351.41;105135;1257;69027;-62
2023/09/20 02:35:45;;;;;;;5.60;2.30;;;;;;;12.64;84.62;100349.35;105164;1259;69204;-63
2023/09/20 02:38:14;;;;;;;6.90;2.30;;;;;;;12.63;84.65;100349.73;105189;1261;72993;-63
2023/09/20 02:40:46;;;;;;;4.10;2.20;;;;;;;12.61;84.66;100352.80;105206;1262;83296;-63
2023/09/20 02:43:16;;;;;;;4.30;2.20;;;;;;;12.60;84.65;100350.79;105088;1256;73766;-63
2023/09/20 02:45:45;;;;;;;;;;;;;;;12.57;84.23;100347.77;105181;1260;69183;-63
2023/09/20 02:48:14;;;;;;;4.70;2.60;;;;;;;12.52;84.46;100344.81;105211;1256;69173;-62
2023/09/20 02:50:44;;;;;;;3.60;1.90;;;;;;;12.49;84.32;100344.77;105234;1256;74522;-63
2023/09/20 02:53:14;;;;;;;5.90;3.00;;;;;;;12.45;84.32;100344.79;105187;1262;83800;-63
2023/09/20 02:55:42;;;;;;;3.60;2.10;;;;;;;12.43;84.32;100343.13;105193;1260;73624;-63
2023/09/20 02:58:13;;;;;;;4.10;2.50;;;;;;;12.40;84.36;100346.06;105227;1260;69175;-63
2023/09/20 03:00:46;;;;;;;;;;;;;;;12.38;84.27;100347.59;105182;1262;69244;-63
2023/09/20 03:03:17;;;;;;;4.60;2.70;;;;;;;12.33;84.21;100345.34;105183;1256;73090;-63
2023/09/20 03:05:46;;;;;;;4.50;2.30;;;;;;;12.32;84.38;100342.95;105128;1257;82356;-63
2023/09/20 03:08:14;;;;;;;4.20;2.30;;;;;;;12.28;84.39;100344.66;105142;1256;73758;-63
2023/09/20 03:10:43;;;;;;;6.50;2.70;;;;;;;12.27;84.30;100343.86;105217;1256;69102;-63
2023/09/20 03:13:16;;;;;;;4.60;2.40;;;;;;;12.24;84.38;100341.17;105202;1260;69128;-63
2023/09/20 03:15:51;;;;;;;3.70;2.00;;;;;;;12.24;84.72;100342.75;105132;1256;73887;-63
2023/09/20 03:18:25;;;;;;;4.90;2.30;;;;;;;12.24;84.51;100340.84;105156;1257;82441;-63
2023/09/20 03:21:05;;;;;;;5.40;2.20;;;;;;;12.22;84.38;100345.84;105153;1262;72225;-63
2023/09/20 03:23:35;;;;;;;3.20;2.10;;;;;;;12.18;84.39;100339.16;105075;1262;69205;-63
2023/09/20 03:26:06;;;;;;;;;;;;;;;12.15;84.46;100340.87;105201;1256;69080;-63
2023/09/20 03:28:35;;;;;;;;;;;;;;;12.12;84.35;100342.23;105176;1262;73062;-63
2023/09/20 03:31:10;;;;;;;4.40;2.30;;;;;;;12.11;84.59;100344.58;105138;1256;82549;-63
2023/09/20 03:33:40;;;;;;;3.40;2.30;;;;;;;12.09;84.46;100345.90;105178;1262;73056;-63
2023/09/20 03:36:15;;;;;;;3.50;2.40;;;;;;;12.08;84.69;100346.11;105121;1256;69199;-63
2023/09/20 03:38:47;;;;;;;5.40;2.10;;;;;;;12.10;84.94;100346.91;105159;1260;69113;-63
2023/09/20 03:41:16;;;;;;;6.40;1.80;;;;;;;12.11;84.76;100344.93;105115;1262;74348;-63
2023/09/20 03:43:45;;;;;;;3.00;2.20;;;;;;;12.10;84.87;100344.42;105185;1260;83518;-63
2023/09/20 03:46:15;;;;;;;6.50;2.20;;;;;;;12.13;84.84;100344.31;105173;1256;72798;-63
2023/09/20 03:48:44;;;;;;;4.80;2.60;;;;;;;12.14;84.69;100337.77;105206;1260;69077;-63
2023/09/20 03:51:16;;;;;;;3.40;2.00;;;;;;;12.14;84.77;100338.29;105153;1260;69196;-63
2023/09/20 03:53:44;;;;;;;3.50;2.00;;;;;;;12.11;84.72;100341.75;105129;1256;74057;-63
2023/09/20 03:56:17;;;;;;;3.80;2.00;;;;;;;12.10;84.67;100342.48;105147;1260;83659;-63
2023/09/20 03:58:46;;;;;;;5.60;2.40;;;;;;;12.13;84.84;100337.31;105137;1261;73719;-63
2023/09/20 04:01:15;;;;;;;4.50;2.30;;;;;;;12.11;84.60;100337.75;105191;1260;69315;-63
2023/09/20 04:03:45;;;;;;;5.00;2.80;;;;;;;12.09;84.59;100336.27;105192;1262;69850;-63
2023/09/20 04:06:15;;;;;;;4.20;2.20;;;;;;;12.05;84.50;100335.38;105201;1260;72729;-63
2023/09/20 04:08:44;;;;;;;4.80;2.00;;;;;;;12.03;84.51;100338.28;105230;1256;83718;-63
2023/09/20 04:11:12;;;;;;;6.50;2.80;;;;;;;12.00;84.61;100338.05;105202;1256;72606;-63
2023/09/20 04:13:40;;;;;;;3.50;2.30;;;;;;;12.00;84.76;100342.10;105150;1257;69074;-63
2023/09/20 04:16:09;;;;;;;5.10;2.60;;;;;;;12.00;84.82;100339.63;105129;1262;69317;-63
2023/09/20 04:18:38;;;;;;;2.90;2.10;;;;;;;12.01;84.68;100345.72;105173;1261;73709;-63
2023/09/20 04:21:06;;;;;;;5.80;2.20;;;;;;;12.02;85.03;100343.03;105160;1260;83347;-64
2023/09/20 04:23:35;;;;;;;5.10;2.40;;;;;;;12.00;84.81;100345.23;105210;1258;72684;-63
2023/09/20 04:26:03;;;;;;;5.70;2.10;;;;;;;12.01;85.10;100349.76;105182;1262;69074;-63
2023/09/20 04:28:32;;;;;;;4.40;2.30;;;;;;;12.02;84.98;100348.63;105204;1263;69233;-64
2023/09/20 04:31:02;;;;;;;4.10;2.40;;;;;;;12.01;84.77;100349.72;105148;1260;72461;-64
2023/09/20 04:33:32;;;;;;;4.00;2.20;;;;;;;12.01;84.93;100355.17;105185;1262;84418;-63
2023/09/20 04:36:04;;;;;;;4.50;1.80;;;;;;;12.01;85.00;100353.95;105130;1260;73839;-63
2023/09/20 04:38:32;;;;;;;4.80;2.10;;;;;;;12.00;84.92;100353.45;105208;1259;69202;-63
2023/09/20 04:41:01;;;;;;;4.80;2.10;;;;;;;12.00;85.06;100355.55;105242;1261;69180;-62
2023/09/20 04:43:30;;;;;;;4.40;2.30;;;;;;;12.00;84.86;100359.75;105290;1266;73720;-62
2023/09/20 04:46:02;;;;;;;3.90;2.10;;;;;;;12.00;84.88;100358.73;105286;1261;83334;-62
2023/09/20 04:48:33;;;;;;;3.40;2.00;;;;;;;11.99;85.15;100358.91;105308;1262;73586;-62
2023/09/20 04:51:03;;;;;;;4.70;2.50;;;;;;;12.00;85.00;100354.70;105262;1260;69024;-62
2023/09/20 04:53:35;;;;;;;3.90;1.90;;;;;;;12.00;84.87;100359.39;105290;1260;69485;-63
2023/09/20 04:56:05;;;;;;;2.80;1.90;;;;;;;12.01;85.15;100358.16;105187;1261;73153;-62
2023/09/20 04:58:33;;;;;;;;;;;;;;;12.02;85.11;100356.16;105409;1260;83685;-62
2023/09/20 05:01:02;;;;;;;3.70;2.10;;;;;;;12.03;85.21;100356.13;105167;1260;72744;-62
2023/09/20 05:03:31;;;;;;;3.80;1.90;;;;;;;12.07;85.42;100355.41;105381;1257;69188;-62
2023/09/20 05:05:59;;;;;;;3.60;1.70;;;;;;;12.15;85.50;100357.88;105145;1263;69211;-63
2023/09/20 05:08:28;;;;;;;3.90;2.20;;;;;;;12.21;85.71;100356.02;105198;1263;73039;-62
2023/09/20 05:10:56;;;;;;;8.00;2.00;;;;;;;12.28;85.65;100351.69;105199;1258;83417;-62
2023/09/20 05:13:25;;;;;;;3.80;1.80;;;;;;;12.36;85.74;100354.66;105115;1257;73652;-62
2023/09/20 05:15:54;;;;;;;5.70;2.40;;;;;;;12.40;85.42;100357.45;105226;1262;69133;-62
2023/09/20 05:18:23;;;;;;;4.10;1.90;;;;;;;12.45;85.29;100365.30;105306;1260;69052;-63
2023/09/20 05:20:51;;;;;;;4.30;1.90;;;;;;;12.47;85.18;100364.67;105225;1267;74111;-63
2023/09/20 05:23:19;;;;;;;5.10;1.90;;;;;;;12.49;85.21;100371.05;105221;1261;83384;-63
2023/09/20 05:25:48;;;;;;;2.50;1.50;;;;;;;12.50;85.21;100369.81;105147;1256;73395;-62
2023/09/20 05:28:17;;;;;;;7.10;1.80;;;;;;;12.51;85.11;100367.14;105305;1260;69203;-62
2023/09/20 05:30:46;;;;;;;5.90;1.70;;;;;;;12.53;85.25;100366.16;105449;1256;69165;-62
2023/09/20 05:33:17;;;;;;;5.10;1.80;;;;;;;12.55;85.21;100370.46;105373;1261;73165;-62
2023/09/20 05:35:47;;;;;;;4.50;2.10;;;;;;;12.58;85.17;100374.90;105358;1270;83330;-62
2023/09/20 05:38:17;;;;;;;4.50;1.80;;;;;;;12.59;85.14;100375.55;105256;1260;73041;-62
2023/09/20 05:40:46;;;;;;;6.50;2.00;;;;;;;12.61;85.03;100378.92;105300;1261;69068;-62
2023/09/20 05:43:17;;;;;;;3.60;1.90;;;;;;;12.63;85.02;100382.19;105270;1260;69160;-63
2023/09/20 05:45:45;;;;;;;4.50;1.70;;;;;;;12.66;85.27;100383.46;105229;1267;74331;-64
2023/09/20 05:48:14;;;;;;;5.50;1.80;;;;;;;12.70;85.21;100385.34;105218;1262;84117;-63
2023/09/20 05:50:43;;;;;;;5.00;2.00;;;;;;;12.75;85.34;100380.25;105176;1256;73643;-63
2023/09/20 05:53:11;;;;;;;4.00;1.80;;;;;;;12.81;85.53;100383.29;105309;1260;69351;-64
2023/09/20 05:55:44;;;;;;;3.70;1.80;;;;;;;12.86;85.32;100386.04;105379;1261;69946;-62
2023/09/20 05:58:12;;;;;;;3.10;1.50;;;;;;;12.89;85.26;100384.83;105324;1262;73210;-62
2023/09/20 06:00:40;;;;;;;3.00;1.70;;;;;;;12.92;85.11;100385.19;105202;1262;83491;-62
2023/09/20 06:03:11;;;;;;;3.30;1.70;;;;;;;12.96;85.23;100381.51;105342;1260;73478;-65
2023/09/20 06:05:42;;;;;;;4.70;1.90;;;;;;;13.02;85.16;100376.85;105281;1270;69166;-62
2023/09/20 06:08:11;;;;;;;5.40;1.80;;;;;;;13.08;85.02;100378.34;105313;1260;69145;-63
2023/09/20 06:10:40;;;;;;;4.00;1.70;;;;;;;13.14;85.34;100384.15;105193;1260;72981;-62
2023/09/20 06:13:09;;;;;;;2.40;1.30;;;;;;;13.21;85.43;100385.44;105157;1263;83226;-63
2023/09/20 06:15:38;;;;;;;6.70;2.00;;;;;;;13.26;84.98;100387.83;105198;1261;72814;-62
2023/09/20 06:18:09;;;;;;;4.20;1.50;;;;;;;13.32;85.17;100388.96;106051;1259;69190;-62
2023/09/20 06:20:39;;;;;;;3.20;1.40;;;;;;;13.39;85.24;100386.52;105204;1257;69034;-62
2023/09/20 06:23:08;;;;;;;4.80;1.80;;;;;;;13.47;85.27;100388.05;105163;1259;236520;-66
2023/09/20 06:25:36;;;;;;;4.10;1.60;;;;;;;13.55;85.07;100387.83;105414;1260;83149;-65
2023/09/20 06:28:05;;;;;;;4.80;1.90;;;;;;;13.63;85.28;100388.66;105262;1260;73353;-65
2023/09/20 06:30:33;;;;;;;5.90;1.90;;;;;;;13.73;85.16;100389.59;105165;1262;69197;-66
2023/09/20 06:33:04;;;;;;;3.80;1.70;;;;;;;13.82;85.10;100393.69;105233;1260;69061;-65
2023/09/20 06:35:32;;;;;;;3.10;1.50;;;;;;;13.92;85.30;100393.86;105296;1258;73950;-65
2023/09/20 06:38:01;;;;;;;3.60;1.60;;;;;;;14.02;85.04;100386.66;105316;1260;83695;-64
2023/09/20 06:40:51;;;;;;;3.90;1.50;;;;;;;14.11;84.83;100384.11;105294;1262;72657;-65
2023/09/20 06:43:18;;;;;;;3.30;1.50;;;;;;;14.21;84.65;100391.67;105178;1261;69190;-66
2023/09/20 06:45:51;;;;;;;3.30;1.70;;;;;;;14.29;84.73;100391.60;105276;1260;69075;-66
2023/09/20 06:48:24;;;;;;;4.60;1.70;;;;;;;14.39;84.67;100395.31;105213;1257;73969;-67
2023/09/20 06:50:57;;;;;;;5.60;2.30;;;;;;;14.49;84.68;100401.27;105218;1269;83583;-68
2023/09/20 06:53:26;;;;;;;8.90;2.50;;;;;;;14.57;84.41;100397.02;105181;1269;73345;-62
2023/09/20 06:55:54;;;;;;;3.60;1.80;;;;;;;14.65;84.31;100397.47;105275;1260;69509;-62
2023/09/20 06:58:24;;;;;;;2.80;1.60;;;;;;;14.74;84.25;100395.92;105705;1260;69116;-62
2023/09/20 07:00:53;;;;;;;4.30;1.40;;;;;;;14.81;83.95;100399.92;105159;1260;74085;-61
2023/09/20 07:03:22;;;;;;;3.60;2.00;;;;;;;14.87;83.73;100401.39;105257;1261;83107;-64
2023/09/20 07:05:51;;;;;;;7.10;2.40;;;;;;;14.93;83.64;100404.70;105329;1262;73136;-63
2023/09/20 07:08:21;;;;;;;7.70;2.40;;;;;;;14.99;83.64;100405.80;105338;1258;69084;-62
2023/09/20 07:10:51;;;;;;;4.10;1.80;;;;;;;15.07;83.58;100411.38;105324;1260;69006;-62
2023/09/20 07:13:19;;;;;;;4.80;1.80;;;;;;;15.11;83.36;100414.14;105327;1262;72956;-63
2023/09/20 07:15:51;;;;;;;4.80;1.50;;;;;;;15.17;83.48;100418.20;105329;1260;83590;-62
2023/09/20 07:18:19;;;;;;;4.40;2.20;;;;;;;15.26;83.55;100422.09;105384;1258;73677;-62
2023/09/20 07:20:54;;;;;;;6.10;2.30;;;;;;;15.35;83.55;100424.73;105342;1262;69265;-61
2023/09/20 07:23:23;;;;;;;5.10;1.60;;;;;;;15.46;83.54;100429.08;105344;1260;69177;-62
2023/09/20 07:25:52;;;;;;;3.10;1.80;;;;;;;15.56;83.51;100427.60;105374;1260;74223;-61
2023/09/20 07:28:24;;;;;;;2.70;1.70;;;;;;;15.69;83.43;100430.44;105361;1260;83363;-61
2023/09/20 07:30:55;;;;;;;4.60;2.10;;;;;;;15.80;83.32;100428.16;105248;1260;72863;-62
2023/09/20 07:33:24;;;;;;;3.60;2.00;;;;;;;15.95;83.37;100430.14;105253;1260;69262;-62
2023/09/20 07:36:00;;;;;;;3.20;1.60;;;;;;;16.12;83.25;100429.84;105323;1260;69182;-62
2023/09/20 07:38:32;;;;;;;6.20;1.70;;;;;;;16.31;83.07;100429.38;105296;1260;73880;-61
2023/09/20 07:41:09;;;;;;;3.40;1.60;;;;;;;16.50;82.93;100425.05;105421;1259;82706;-61
2023/09/20 07:43:42;;;;;;;3.00;1.50;;;;;;;16.68;82.81;100430.66;105239;1261;73773;-63
2023/09/20 07:46:13;;;;;;;3.60;1.60;;;;;;;16.86;82.58;100429.03;105199;1257;69156;-62
2023/09/20 07:48:50;;;;;;;4.00;1.90;;;;;;;17.00;82.36;100426.77;105449;1259;69141;-62
2023/09/20 07:51:20;;;;;;;6.50;1.90;;;;;;;17.13;81.90;100425.56;105346;1259;72460;-62
2023/09/20 07:53:51;;;;;;;3.90;1.60;;;;;;;17.21;81.27;100425.97;105338;1257;83103;-61
2023/09/20 07:56:20;;;;;;;3.50;1.40;;;;;;;17.25;80.95;100430.27;105245;1260;72976;-62
2023/09/20 07:58:49;;;;;;;3.00;1.60;;;;;;;17.33;80.84;100430.66;105386;1261;69237;-61
2023/09/20 08:01:21;;;;;;;4.90;1.60;;;;;;;17.42;80.95;100422.10;105314;1257;69458;-61
2023/09/20 08:03:52;;;;;;;4.70;1.60;;;;;;;17.52;80.43;100418.48;105370;1256;73855;-62
2023/09/20 08:06:25;;;;;;;3.60;1.20;;;;;;;17.60;80.34;100422.52;105315;1259;83435;-63
2023/09/20 08:08:55;;;;;;;3.70;1.70;;;;;;;17.72;80.23;100419.11;105306;1261;73630;-63
2023/09/20 08:11:24;;;;;;;2.40;1.20;;;;;;;17.85;80.05;100418.63;105203;1260;69273;-62
2023/09/20 08:13:54;;;;;;;4.20;1.60;;;;;;;17.99;80.01;100417.68;105320;1260;69183;-62
2023/09/20 08:16:24;;;;;;;;;;;;;;;18.15;79.91;100423.81;105338;1260;73102;-62
2023/09/20 08:21:46;;;;;;;1.80;1.10;;;;;;;18.51;79.45;100424.35;105372;1260;72810;-62
2023/09/20 09:00:34;;;;;;;3.10;1.30;;;;;;;20.18;70.36;100408.13;105204;1260;82372;-69
2023/09/20 09:03:04;;;;;;;;;;;;;;;20.25;69.92;100408.20;105286;1258;74657;-67
2023/09/20 09:05:36;;;;;;;2.70;1.20;;;;;;;20.30;69.54;100405.06;105111;1257;69100;-67
2023/09/20 09:08:06;;;;;;;2.20;1.20;;;;;;;20.29;69.00;100403.16;105213;1257;69269;-67
2023/09/20 09:10:34;;;;;;;2.50;1.20;;;;;;;20.26;68.59;100396.45;105287;1258;73902;-66
2023/09/20 09:13:04;;;;;;;2.30;1.20;;;;;;;20.29;68.33;100399.23;105196;1260;83510;-66
2023/09/20 09:15:32;;;;;;;2.70;1.30;;;;;;;20.34;67.95;100404.05;105499;1257;73915;-67
2023/09/20 09:18:00;;;;;;;2.90;1.40;;;;;;;20.39;67.64;100394.41;105262;1260;69131;-66
2023/09/20 09:20:32;;;;;;;4.70;1.30;;;;;;;20.47;67.63;100391.13;105283;1257;69106;-66
2023/09/20 09:23:02;;;;;;;2.20;1.30;;;;;;;20.58;67.04;100393.50;105278;1257;73043;-66
2023/09/20 09:25:31;;;;;;;7.20;1.40;;;;;;;20.65;66.56;100393.97;105239;1261;82493;-67
2023/09/20 09:28:01;;;;;;;2.50;1.20;;;;;;;20.77;66.33;100390.17;105231;1257;73838;-67
2023/09/20 09:30:31;;;;;;;4.30;1.10;;;;;;;20.90;66.21;100389.83;105198;1268;69106;-67
2023/09/20 09:33:00;;;;;;;3.30;1.30;;;;;;;21.06;65.99;100391.60;105283;1260;69148;-67
2023/09/20 09:35:28;;;;;;;3.10;1.20;;;;;;;21.20;65.54;100394.34;105289;1258;74042;-68
2023/09/20 09:38:21;;;;;;;2.90;1.20;;;;;;;21.34;65.24;100389.81;105318;1260;83375;-67
2023/09/20 09:40:53;;;;;;;2.40;1.10;;;;;;;21.55;64.84;100385.45;105238;1260;72649;-66
2023/09/20 09:43:32;;;;;;;2.70;1.30;;;;;;;21.77;64.83;100383.09;105234;1260;69834;-67
2023/09/20 09:46:08;;;;;;;4.20;1.50;;;;;;;21.98;63.60;100392.11;105237;1260;69102;-67
2023/09/20 09:48:37;;;;;;;3.70;1.50;;;;;;;21.97;62.40;100387.93;105272;1257;74026;-67
2023/09/20 09:51:06;;;;;;;2.30;1.30;;;;;;;22.01;62.00;100391.01;105247;1257;82524;-67
2023/09/20 09:53:39;;;;;;;4.20;1.90;;;;;;;22.10;61.49;100391.52;105279;1255;73695;-68
2023/09/20 09:56:09;;;;;;;2.80;1.30;;;;;;;22.16;61.19;100383.46;105299;1260;69131;-67
2023/09/20 09:58:37;;;;;;;;;;;;;;;22.31;60.94;100383.84;105244;1260;69195;-67
2023/09/20 10:01:08;;;;;;;2.60;1.10;;;;;;;22.48;60.83;100381.16;105303;1260;73051;-67
2023/09/20 10:03:40;;;;;;;;;;;;;;;22.66;60.43;100377.08;105270;1257;83499;-68
2023/09/20 10:06:14;;;;;;;7.40;1.20;;;;;;;22.83;60.25;100378.77;105164;1257;73024;-68
2023/09/20 10:08:43;;;;;;;3.10;1.30;;;;;;;23.08;60.00;100374.89;105300;1256;69122;-68
2023/09/20 10:11:13;;;;;;;3.60;1.10;;;;;;;23.32;59.37;100374.55;105208;1257;69116;-68
2023/09/20 10:13:44;;;;;;;3.70;1.30;;;;;;;23.43;57.98;100376.98;105561;1254;73876;-68
2023/09/20 10:16:12;;;;;;;3.20;1.30;;;;;;;23.58;58.40;100380.22;105450;1254;83228;-67
2023/09/20 10:18:51;;;;;;;;;;;;;;;23.78;57.96;100381.80;105469;1258;73478;-68
2023/09/20 10:21:30;;;;;;;3.70;1.20;;;;;;;23.79;56.81;100382.21;105573;1254;69160;-68
2023/09/20 10:24:07;;;;;;;4.60;1.20;;;;;;;23.87;56.55;100380.02;105505;1255;69206;-68
2023/09/20 10:26:39;;;;;;;3.10;1.10;;;;;;;24.17;56.72;100373.70;105641;1254;74314;-68
2023/09/20 10:29:28;;;;;;;3.20;1.40;;;;;;;24.39;56.00;100375.63;105582;1254;83272;-68
2023/09/20 10:32:17;;;;;;;3.60;1.50;;;;;;;24.47;54.71;100371.89;105561;1256;72583;-68
2023/09/20 10:35:22;;;;;;;3.10;1.60;;;;;;;24.38;53.81;100365.56;105605;1255;69173;-68
2023/09/20 10:37:59;;;;;;;2.10;1.10;;;;;;;24.49;53.87;100360.08;105640;1257;69119;-68
2023/09/20 10:40:47;;;;;;;4.20;1.30;;;;;;;24.68;53.44;100360.95;105601;1254;73990;-67
2023/09/20 10:43:18;;;;;;;2.30;1.20;;;;;;;24.74;52.76;100363.76;105568;1254;83693;-68
2023/09/20 10:45:50;;;;;;;2.10;1.10;;;;;;;24.82;52.12;100356.21;105579;1256;73663;-65
2023/09/20 10:48:22;;;;;;;2.60;1.10;;;;;;;24.92;51.95;100358.73;105531;1254;69091;-67
2023/09/20 10:50:54;;;;;;;2.90;1.30;;;;;;;25.12;52.03;100355.36;105595;1254;69096;-67
2023/09/20 10:53:22;;;;;;;2.40;1.10;;;;;;;25.43;51.93;100358.44;105594;1256;74358;-66
2023/09/20 10:55:50;;;;;;;3.60;1.60;;;;;;;25.65;51.76;100353.64;105463;1253;82055;-66
2023/09/20 10:58:23;;;;;;;3.30;1.20;;;;;;;25.85;50.80;100359.73;105526;1253;73681;-69
2023/09/20 11:00:52;;;;;;;2.00;1.10;;;;;;;25.87;50.43;100358.80;105534;1255;69129;-69
2023/09/20 11:03:22;;;;;;;5.00;1.00;;;;;;;25.91;50.37;100361.04;105626;1255;69158;-68
2023/09/20 11:05:53;;;;;;;2.70;1.20;;;;;;;25.99;49.63;100347.94;105610;1254;73704;-69
2023/09/20 11:08:24;;;;;;;2.50;1.30;;;;;;;26.11;49.84;100343.11;105545;1256;82003;-70
2023/09/20 11:10:54;;;;;;;3.50;1.30;;;;;;;26.20;49.20;100341.05;105742;1256;72956;-68
2023/09/20 11:13:22;;;;;;;2.30;0.90;;;;;;;26.34;49.42;100338.34;105749;1255;69128;-68
2023/09/20 11:15:51;;;;;;;2.60;1.20;;;;;;;26.54;49.28;100340.39;105945;1255;69172;-68
2023/09/20 11:18:19;;;;;;;3.00;1.30;;;;;;;26.63;48.43;100341.61;105755;1254;73766;-67
2023/09/20 11:20:49;;;;;;;2.50;1.10;;;;;;;26.60;48.14;100334.41;105773;1256;83256;-68
2023/09/20 11:23:18;;;;;;;4.40;1.30;;;;;;;26.68;48.32;100330.17;105444;1254;73668;-68
2023/09/20 11:25:50;;;;;;;3.00;1.20;;;;;;;26.97;48.07;100333.02;105603;1254;69185;-69
2023/09/20 11:28:19;;;;;;;3.70;1.30;;;;;;;27.20;48.02;100324.25;105743;1253;69485;-68
2023/09/20 11:30:51;;;;;;;2.90;1.20;;;;;;;27.58;47.97;100317.92;105543;1254;73896;-69
2023/09/20 11:33:29;;;;;;;2.20;1.10;;;;;;;27.83;47.14;100318.46;105672;1258;83268;-69
2023/09/20 11:35:58;;;;;;;2.70;1.10;;;;;;;27.84;46.29;100315.67;105668;1253;73889;-68
2023/09/20 11:38:27;;;;;;;3.10;1.30;;;;;;;27.77;46.05;100312.19;105773;1254;69775;-68
2023/09/20 11:40:56;;;;;;;;;;;;;;;27.89;46.24;100309.90;105602;1257;69205;-69
2023/09/20 11:43:28;;;;;;;1.90;1.20;;;;;;;28.11;46.15;100305.36;105653;1254;74366;-67
2023/09/20 11:45:56;;;;;;;2.40;1.20;;;;;;;28.22;45.63;100305.77;105664;1256;83687;-68
2023/09/20 11:48:29;;;;;;;2.00;1.10;;;;;;;28.28;45.42;100302.75;105795;1252;73897;-68
2023/09/20 11:50:57;;;;;;;2.80;1.10;;;;;;;28.39;44.64;100302.64;105537;1255;69114;-68
2023/09/20 11:53:29;;;;;;;2.00;1.00;;;;;;;28.31;44.50;100297.45;105460;1257;69230;-67
2023/09/20 11:56:00;;;;;;;2.40;1.10;;;;;;;28.28;44.24;100296.36;105536;1257;73059;-67
2023/09/20 11:58:36;;;;;;;4.00;1.40;;;;;;;28.21;43.72;100299.94;105698;1253;83428;-68
2023/09/20 12:01:08;;;;;;;1.90;1.10;;;;;;;28.00;43.47;100291.94;105660;1254;73513;-68
2023/09/20 12:03:37;;;;;;;1.70;0.90;;;;;;;28.07;43.78;100288.05;105627;1255;69554;-68
2023/09/20 12:06:05;;;;;;;1.50;0.90;;;;;;;28.11;43.76;100287.13;105681;1255;69129;-67
2023/09/20 12:08:34;;;;;;;3.70;1.40;;;;;;;28.01;42.91;100286.84;105724;1256;73431;-67
2023/09/20 12:11:03;;;;;;;1.30;1.00;;;;;;;27.89;43.35;100284.52;105732;1256;83581;-68
2023/09/20 12:13:31;;;;;;;3.90;0.90;;;;;;;28.17;43.72;100287.67;105702;1254;73623;-65